Time;durP1;ratioP1;P1;durP2;ratioP2;P2;SDS_P1;SDS_P2;PMS_P1;PMS_P2;Temp;Humidity;BMP_temperature;BMP_pressure;BME280_temperature;BME280_humidity;BME280_pressure;Samples;Min_cycle;Max_cycle;Signal;HPM_P1;HPM_P2
2024/01/12 00:01:01;;;;;;;344.53;137.37;;;;;;;;;;5005107;28;20771;-53
2024/01/12 00:03:27;;;;;;;390.77;154.90;;;;;;;;;;5008237;28;20468;-53
2024/01/12 00:05:53;;;;;;;379.47;152.77;;;;;;;;;;5011359;28;20228;-53
2024/01/12 00:08:19;;;;;;;377.47;150.20;;;;;;;;;;5006973;28;20208;-53
2024/01/12 00:10:45;;;;;;;368.77;143.77;;;;;;;;;;5015901;28;20196;-52
2024/01/12 00:13:11;;;;;;;351.73;137.97;;;;;;;;;;5012626;28;20725;-52
2024/01/12 00:15:37;;;;;;;372.83;150.17;;;;;;;;;;4999484;28;21282;-52
2024/01/12 00:18:03;;;;;;;357.63;139.00;;;;;;;;;;5006235;28;20240;-52
2024/01/12 00:20:29;;;;;;;398.83;157.23;;;;;;;;;;5009102;28;20572;-52
2024/01/12 00:22:56;;;;;;;369.60;145.10;;;;;;;;;;5015371;28;20184;-53
2024/01/12 00:25:23;;;;;;;363.00;142.80;;;;;;;;;;5005696;28;20360;-53
2024/01/12 00:27:48;;;;;;;358.03;140.77;;;;;;;;;;5006064;28;20273;-53
2024/01/12 00:30:14;;;;;;;406.53;166.00;;;;;;;;;;5001874;28;20225;-53
2024/01/12 00:32:40;;;;;;;357.00;140.77;;;;;;;;;;5005725;28;20220;-52
2024/01/12 00:35:06;;;;;;;355.30;139.73;;;;;;;;;;5011118;28;20208;-53
2024/01/12 00:37:32;;;;;;;400.73;159.07;;;;;;;;;;5006074;28;20180;-53
2024/01/12 00:39:58;;;;;;;354.17;139.13;;;;;;;;;;5007507;28;20216;-53
2024/01/12 00:42:24;;;;;;;387.97;155.67;;;;;;;;;;5010507;28;20219;-52
2024/01/12 00:44:50;;;;;;;406.87;161.33;;;;;;;;;;5002454;28;20236;-53
2024/01/12 00:47:16;;;;;;;379.87;147.23;;;;;;;;;;5006941;28;20200;-53
2024/01/12 00:49:42;;;;;;;376.37;144.63;;;;;;;;;;5007382;28;20188;-53
2024/01/12 00:52:08;;;;;;;386.77;150.37;;;;;;;;;;4998986;28;20232;-53
2024/01/12 00:54:34;;;;;;;368.47;146.13;;;;;;;;;;5004011;28;20224;-54
2024/01/12 00:57:00;;;;;;;370.77;145.03;;;;;;;;;;5012986;28;20223;-54
2024/01/12 00:59:26;;;;;;;371.13;144.20;;;;;;;;;;5003236;28;20225;-54
2024/01/12 01:01:57;;;;;;;367.40;146.53;;;;;;;;;;5012465;28;20211;-54
2024/01/12 01:04:25;;;;;;;375.70;149.23;;;;;;;;;;5003197;28;20217;-53
2024/01/12 01:06:51;;;;;;;335.83;132.93;;;;;;;;;;5001875;28;20217;-53
2024/01/12 01:09:17;;;;;;;338.93;133.17;;;;;;;;;;5001711;28;20274;-53
2024/01/12 01:11:43;;;;;;;352.13;137.20;;;;;;;;;;5006060;28;20362;-53
2024/01/12 01:14:09;;;;;;;369.57;145.03;;;;;;;;;;5003082;28;20608;-53
2024/01/12 01:16:35;;;;;;;358.90;140.33;;;;;;;;;;5000325;28;20179;-53
2024/01/12 01:19:01;;;;;;;385.37;154.87;;;;;;;;;;5009963;28;20513;-53
2024/01/12 01:21:27;;;;;;;382.53;153.37;;;;;;;;;;5004177;28;20692;-53
2024/01/12 01:23:55;;;;;;;364.53;143.17;;;;;;;;;;5009854;28;20216;-53
2024/01/12 01:26:20;;;;;;;375.83;151.83;;;;;;;;;;5005694;28;20754;-52
2024/01/12 01:28:46;;;;;;;426.67;175.23;;;;;;;;;;5001837;28;20184;-53
2024/01/12 01:31:12;;;;;;;396.70;157.80;;;;;;;;;;5003887;28;20222;-53
2024/01/12 01:33:38;;;;;;;367.07;146.43;;;;;;;;;;5011710;28;20211;-52
2024/01/12 01:36:06;;;;;;;360.17;145.20;;;;;;;;;;5007061;28;20323;-53
2024/01/12 01:38:31;;;;;;;363.03;146.67;;;;;;;;;;5009803;28;20271;-52
2024/01/12 01:40:57;;;;;;;387.13;154.37;;;;;;;;;;5001045;28;20197;-52
2024/01/12 01:43:23;;;;;;;348.53;138.77;;;;;;;;;;5005603;28;20287;-53
2024/01/12 01:45:49;;;;;;;372.80;152.33;;;;;;;;;;5003924;28;20226;-52
2024/01/12 01:48:15;;;;;;;368.10;146.67;;;;;;;;;;5015632;28;20251;-52
2024/01/12 01:50:42;;;;;;;380.37;151.03;;;;;;;;;;5003200;28;20221;-52
2024/01/12 01:53:09;;;;;;;420.77;176.40;;;;;;;;;;4998026;28;20220;-53
2024/01/12 01:55:35;;;;;;;365.10;142.50;;;;;;;;;;5008131;28;20274;-52
2024/01/12 01:58:01;;;;;;;343.00;139.10;;;;;;;;;;5014997;28;20769;-52
2024/01/12 02:00:28;;;;;;;368.23;147.73;;;;;;;;;;5009558;28;20216;-52
2024/01/12 02:02:54;;;;;;;346.77;139.17;;;;;;;;;;5004596;28;20266;-53
2024/01/12 02:05:21;;;;;;;368.03;146.93;;;;;;;;;;5004450;28;20237;-53
2024/01/12 02:07:47;;;;;;;372.67;147.80;;;;;;;;;;5005672;28;20185;-52
2024/01/12 02:10:13;;;;;;;376.20;149.10;;;;;;;;;;5011198;28;20527;-53
2024/01/12 02:12:39;;;;;;;360.20;141.77;;;;;;;;;;5011439;28;20208;-52
2024/01/12 02:15:09;;;;;;;363.17;146.00;;;;;;;;;;5008531;28;20216;-52
2024/01/12 02:17:35;;;;;;;374.90;153.70;;;;;;;;;;5017534;28;20299;-52
2024/01/12 02:20:01;;;;;;;340.57;134.53;;;;;;;;;;5010988;28;20184;-51
2024/01/12 02:22:27;;;;;;;385.87;153.27;;;;;;;;;;5011727;28;20180;-54
2024/01/12 02:24:53;;;;;;;365.73;145.80;;;;;;;;;;5006537;28;20326;-52
2024/01/12 02:27:20;;;;;;;365.20;143.60;;;;;;;;;;5010838;28;20347;-52
2024/01/12 02:29:47;;;;;;;355.93;142.30;;;;;;;;;;5007344;28;20223;-52
2024/01/12 02:32:13;;;;;;;357.27;138.30;;;;;;;;;;5005469;28;20185;-52
2024/01/12 02:34:39;;;;;;;357.30;138.90;;;;;;;;;;5006022;28;20715;-52
2024/01/12 02:37:05;;;;;;;362.90;137.97;;;;;;;;;;5003286;28;20212;-52
2024/01/12 02:39:31;;;;;;;402.47;163.57;;;;;;;;;;5000602;28;20466;-52
2024/01/12 02:41:57;;;;;;;367.50;142.20;;;;;;;;;;5009896;28;20245;-52
2024/01/12 02:44:26;;;;;;;382.57;151.10;;;;;;;;;;5002163;28;20223;-51
2024/01/12 02:46:53;;;;;;;348.77;138.17;;;;;;;;;;5008777;28;20283;-52
2024/01/12 02:49:19;;;;;;;375.23;150.40;;;;;;;;;;5010383;28;20263;-52
2024/01/12 02:51:45;;;;;;;360.87;143.17;;;;;;;;;;5010212;28;20381;-51
2024/01/12 02:54:11;;;;;;;343.13;134.70;;;;;;;;;;5014788;28;20221;-52
2024/01/12 02:56:37;;;;;;;378.17;153.73;;;;;;;;;;5006197;28;20671;-52
2024/01/12 02:59:03;;;;;;;429.10;177.60;;;;;;;;;;5012792;28;20698;-52
2024/01/12 03:01:29;;;;;;;370.03;142.07;;;0.70;99.90;;;;;;5003259;28;20196;-52
2024/01/12 03:03:55;;;;;;;369.40;141.43;;;;;;;;;;5012689;28;20330;-52
2024/01/12 03:06:21;;;;;;;356.77;139.53;;;;;;;;;;5007822;28;20223;-52
2024/01/12 03:08:47;;;;;;;367.27;144.33;;;;;;;;;;5015172;28;20211;-53
2024/01/12 03:11:13;;;;;;;373.40;147.77;;;;;;;;;;5011695;28;20181;-52
2024/01/12 03:13:39;;;;;;;419.90;168.50;;;;;;;;;;5005404;28;20181;-52
2024/01/12 03:16:05;;;;;;;348.37;136.53;;;;;;;;;;5004479;28;20635;-53
2024/01/12 03:18:32;;;;;;;369.27;146.27;;;;;;;;;;5011640;28;20216;-52
2024/01/12 03:20:58;;;;;;;357.33;137.27;;;;;;;;;;5002625;28;20249;-52
2024/01/12 03:23:24;;;;;;;381.03;152.07;;;;;;;;;;5005907;28;20219;-52
2024/01/12 03:25:50;;;;;;;362.77;142.93;;;;;;;;;;5010807;28;20631;-53
2024/01/12 03:28:16;;;;;;;421.10;168.97;;;;;;;;;;5003080;28;20209;-53
2024/01/12 03:30:42;;;;;;;343.07;133.43;;;;;;;;;;5010558;28;20322;-52
2024/01/12 03:33:09;;;;;;;344.37;134.47;;;;;;;;;;5011568;28;20968;-51
2024/01/12 03:35:35;;;;;;;380.90;154.10;;;;;;;;;;5016828;28;20750;-53
2024/01/12 03:38:02;;;;;;;362.40;139.67;;;;;;;;;;5015043;28;20225;-52
2024/01/12 03:40:28;;;;;;;382.17;150.70;;;;;;;;;;5012132;28;20188;-52
2024/01/12 03:42:54;;;;;;;376.30;145.63;;;;;;;;;;4995564;28;20584;-53
2024/01/12 03:45:20;;;;;;;402.90;160.30;;;;;;;;;;4999144;28;20221;-53
2024/01/12 03:47:46;;;;;;;353.73;139.13;;;;;;;;;;5014932;28;20299;-52
2024/01/12 03:50:12;;;;;;;365.80;144.03;;;;;;;;;;5005988;28;20185;-51
2024/01/12 03:52:37;;;;;;;376.33;147.67;;;0.70;99.90;;;;;;5013565;28;20698;-52
2024/01/12 03:55:03;;;;;;;359.53;140.27;;;;;;;;;;5006422;28;20222;-52
2024/01/12 03:57:29;;;;;;;401.27;160.70;;;;;;;;;;5003303;28;20223;-52
2024/01/12 03:59:55;;;;;;;364.07;142.40;;;;;;;;;;5002285;28;20636;-52
2024/01/12 04:02:21;;;;;;;371.83;147.53;;;;;;;;;;5006495;28;20290;-52
2024/01/12 04:04:47;;;;;;;384.27;153.33;;;;;;;;;;5007665;28;20242;-52
2024/01/12 04:07:13;;;;;;;348.00;136.97;;;;;;;;;;5014444;28;20726;-52
2024/01/12 04:09:39;;;;;;;386.17;151.67;;;;;;;;;;5010857;28;20308;-52
2024/01/12 04:12:05;;;;;;;346.90;137.13;;;;;;;;;;5005738;28;20220;-52
2024/01/12 04:14:31;;;;;;;414.33;170.50;;;;;;;;;;5008953;28;20231;-53
2024/01/12 04:16:57;;;;;;;401.37;158.30;;;;;;;;;;5010612;28;20188;-52
2024/01/12 04:19:23;;;;;;;373.77;143.57;;;;;;;;;;5013944;28;20272;-51
2024/01/12 04:21:49;;;;;;;375.10;146.33;;;;;;;;;;5011082;28;20278;-52
2024/01/12 04:24:15;;;;;;;368.90;142.30;;;;;;;;;;5006630;28;20274;-52
2024/01/12 04:26:41;;;;;;;365.87;142.23;;;;;;;;;;5002523;28;20212;-52
2024/01/12 04:29:07;;;;;;;342.03;133.30;;;;;;;;;;5005616;28;20185;-52
2024/01/12 04:31:33;;;;;;;381.83;151.27;;;;;;;;;;5007578;28;20207;-53
2024/01/12 04:33:59;;;;;;;386.07;154.07;;;;;;;;;;5009942;28;20216;-52
2024/01/12 04:36:25;;;;;;;372.43;145.60;;;;;;;;;;4999922;28;20600;-51
2024/01/12 04:38:51;;;;;;;358.87;143.17;;;;;;;;;;5006227;28;20710;-53
2024/01/12 04:41:16;;;;;;;407.93;164.37;;;;;;;;;;4980312;28;25032;-52
2024/01/12 04:43:42;;;;;;;351.73;136.57;;;;;;;;;;5009476;28;20233;-52
2024/01/12 04:46:08;;;;;;;369.50;143.33;;;;;;;;;;5003550;28;20271;-53
2024/01/12 04:48:34;;;;;;;374.03;150.97;;;;;;;;;;5009495;28;20223;-53
2024/01/12 04:51:00;;;;;;;389.83;154.67;;;;;;;;;;5006462;28;20679;-53
2024/01/12 04:53:26;;;;;;;371.77;144.33;;;;;;;;;;5017192;28;20721;-52
2024/01/12 04:55:52;;;;;;;450.43;187.00;;;;;;;;;;4998623;28;20715;-52
2024/01/12 04:58:18;;;;;;;358.07;141.47;;;;;;;;;;5016228;28;20657;-51
2024/01/12 05:00:44;;;;;;;382.87;154.57;;;;;;;;;;5008513;28;20635;-51
2024/01/12 05:03:10;;;;;;;363.30;143.80;;;;;;;;;;5014332;28;20242;-52
2024/01/12 05:05:36;;;;;;;402.70;159.37;;;;;;;;;;5002309;28;20228;-52
2024/01/12 05:08:02;;;;;;;357.67;144.80;;;;;;;;;;5015589;28;20284;-52
2024/01/12 05:10:28;;;;;;;452.97;190.13;;;;;;;;;;5006284;28;20258;-52
2024/01/12 05:12:54;;;;;;;364.77;140.23;;;;;;;;;;5003714;28;20216;-52
2024/01/12 05:15:20;;;;;;;398.37;157.30;;;;;;;;;;4986816;28;20232;-52
2024/01/12 05:17:46;;;;;;;362.43;138.07;;;;;;;;;;5005650;28;20274;-52
2024/01/12 05:20:12;;;;;;;387.77;150.90;;;;;;;;;;5010139;28;20902;-53
2024/01/12 05:22:38;;;;;;;405.63;163.83;;;;;;;;;;5012692;28;20218;-52
2024/01/12 05:25:04;;;;;;;358.30;138.93;;;0.50;99.90;;;;;;5010377;28;20285;-52
2024/01/12 05:27:30;;;;;;;387.23;155.60;;;;;;;;;;4995780;28;20225;-52
2024/01/12 05:29:57;;;;;;;401.33;154.70;;;;;;;;;;5001160;28;20212;-52
2024/01/12 05:32:23;;;;;;;390.37;154.23;;;;;;;;;;5001635;28;20220;-52
2024/01/12 05:34:49;;;;;;;425.10;171.47;;;;;;;;;;4999093;28;20683;-52
2024/01/12 05:37:15;;;;;;;333.87;128.57;;;;;;;;;;5009440;28;20216;-52
2024/01/12 05:39:41;;;;;;;360.70;139.97;;;;;;;;;;5002572;28;20216;-53
2024/01/12 05:42:07;;;;;;;356.47;143.87;;;;;;;;;;4998291;28;20218;-53
2024/01/12 05:44:33;;;;;;;377.97;149.93;;;;;;;;;;5001926;28;20344;-53
2024/01/12 05:46:59;;;;;;;361.93;139.30;;;;;;;;;;5000191;28;20543;-53
2024/01/12 05:49:25;;;;;;;368.83;145.53;;;;;;;;;;5019879;28;20275;-53
2024/01/12 05:51:51;;;;;;;367.17;145.10;;;;;;;;;;4995825;28;20223;-52
2024/01/12 05:54:17;;;;;;;352.40;142.23;;;;;;;;;;5004388;28;20216;-52
2024/01/12 05:56:44;;;;;;;387.50;153.43;;;;;;;;;;5018802;28;20218;-53
2024/01/12 05:59:10;;;;;;;359.03;141.17;;;;;;;;;;5001535;28;20213;-53
2024/01/12 06:01:36;;;;;;;370.50;145.60;;;;;;;;;;5001522;28;20188;-53
2024/01/12 06:04:02;;;;;;;583.03;266.77;;;;;;;;;;4990821;28;20226;-52
2024/01/12 06:06:28;;;;;;;372.30;145.40;;;;;;;;;;4993397;28;20307;-52
2024/01/12 06:08:54;;;;;;;379.47;152.23;;;;;;;;;;5003254;28;20758;-52
2024/01/12 06:11:20;;;;;;;362.47;143.03;;;;;;;;;;4999778;28;20679;-53
2024/01/12 06:13:46;;;;;;;395.43;159.83;;;;;;;;;;5006540;28;20248;-52
2024/01/12 06:16:12;;;;;;;413.10;165.30;;;;;;;;;;4982094;28;20228;-52
2024/01/12 06:18:38;;;;;;;424.40;171.53;;;;;;;;;;4995606;28;20215;-51
2024/01/12 06:21:04;;;;;;;373.20;148.63;;;;;;;;;;5011538;28;20219;-53
2024/01/12 06:23:30;;;;;;;346.93;136.40;;;;;;;;;;5000491;28;20323;-51
2024/01/12 06:25:56;;;;;;;363.80;146.27;;;;;;;;;;5007549;28;20232;-52
2024/01/12 06:28:22;;;;;;;396.57;161.77;;;;;;;;;;5003119;28;20517;-52
2024/01/12 06:30:48;;;;;;;401.63;162.27;;;;;;;;;;5000337;28;20325;-52
2024/01/12 06:33:16;;;;;;;372.57;152.07;;;0.60;99.90;;;;;;5000426;28;20278;-52
2024/01/12 06:35:43;;;;;;;444.63;185.20;;;;;;;;;;4985575;28;20216;-51
2024/01/12 06:38:10;;;;;;;385.90;152.27;;;;;;;;;;5009331;28;20518;-51
2024/01/12 06:40:36;;;;;;;363.73;145.67;;;;;;;;;;5002238;28;20208;-51
2024/01/12 06:43:02;;;;;;;352.57;138.53;;;;;;;;;;5010338;28;20242;-52
2024/01/12 06:45:28;;;;;;;388.20;152.23;;;;;;;;;;4994055;28;20368;-52
2024/01/12 06:47:54;;;;;;;360.37;142.33;;;0.40;99.90;;;;;;4998340;28;20250;-52
2024/01/12 06:50:20;;;;;;;338.93;132.93;;;;;;;;;;5014112;28;20697;-51
2024/01/12 06:52:46;;;;;;;446.60;188.00;;;;;;;;;;5008610;28;20188;-52
2024/01/12 06:55:11;;;;;;;364.60;146.20;;;0.50;99.90;;;;;;5003735;28;20447;-52
2024/01/12 06:57:37;;;;;;;366.63;142.83;;;;;;;;;;5008414;28;20239;-52
2024/01/12 07:00:06;;;;;;;357.60;140.73;;;;;;;;;;5005521;28;20459;-51
2024/01/12 07:02:32;;;;;;;346.83;137.23;;;;;;;;;;5003919;28;20212;-53
2024/01/12 07:04:58;;;;;;;467.10;195.93;;;;;;;;;;4997201;28;20449;-51
2024/01/12 07:07:24;;;;;;;358.63;139.57;;;;;;;;;;4986935;28;20556;-53
2024/01/12 07:09:50;;;;;;;368.53;146.00;;;;;;;;;;5003702;28;20274;-52
2024/01/12 07:12:16;;;;;;;353.00;136.70;;;;;;;;;;5004020;28;20217;-53
2024/01/12 07:14:42;;;;;;;373.70;149.20;;;;;;;;;;4998292;28;20229;-52
2024/01/12 07:17:08;;;;;;;401.07;161.83;;;;;;;;;;5005281;28;20239;-52
2024/01/12 07:19:34;;;;;;;355.30;137.10;;;;;;;;;;5007714;28;20185;-52
2024/01/12 07:22:00;;;;;;;393.77;159.10;;;;;;;;;;5001754;28;20588;-52
2024/01/12 07:24:25;;;;;;;393.07;155.37;;;;;;;;;;4995426;28;20217;-53
2024/01/12 07:26:51;;;;;;;412.57;161.20;;;;;;;;;;4986613;28;20220;-53
2024/01/12 07:29:22;;;;;;;437.83;178.60;;;;;;;;;;5003716;28;20315;-53
2024/01/12 07:31:48;;;;;;;414.17;164.87;;;;;;;;;;4994636;28;20185;-54
2024/01/12 07:34:13;;;;;;;377.10;145.90;;;;;;;;;;4999900;28;20974;-53
2024/01/12 07:36:39;;;;;;;452.90;183.20;;;;;;;;;;5007295;28;20250;-53
2024/01/12 07:39:07;;;;;;;346.30;135.30;;;1.00;99.90;;;;;;4998442;28;20231;-52
2024/01/12 07:41:33;;;;;;;409.27;158.50;;;;;;;;;;5000692;28;20292;-52
2024/01/12 07:43:59;;;;;;;355.53;134.43;;;;;;;;;;5001692;28;20192;-52
2024/01/12 07:46:25;;;;;;;362.57;138.77;;;;;;;;;;4991936;28;20192;-53
2024/01/12 07:48:51;;;;;;;428.10;172.63;;;;;;;;;;4995231;28;20626;-53
2024/01/12 07:51:17;;;;;;;394.60;155.17;;;;;;;;;;4996640;28;20251;-53
2024/01/12 07:53:43;;;;;;;378.13;144.03;;;;;;;;;;5011163;28;20246;-53
2024/01/12 07:56:10;;;;;;;417.83;166.27;;;;;;;;;;5014099;23;20246;-46
2024/01/12 07:58:36;;;;;;;387.23;175.20;;;;;;;;;;4968553;28;20251;-46
2024/01/12 08:01:05;;;;;;;345.97;150.77;;;;;;;;;;4963886;28;20700;-45
2024/01/12 08:03:31;;;;;;;350.67;149.30;;;;;;;;;;4977416;28;20225;-45
2024/01/12 08:05:57;;;;;;;353.33;150.87;;;;;;;;;;4981496;28;20706;-46
2024/01/12 08:08:23;;;;;;;356.27;155.37;;;;;;;;;;4987226;28;20221;-45
2024/01/12 08:10:49;;;;;;;359.57;159.73;;;;;;;;;;4987115;28;20776;-45
2024/01/12 08:13:14;;;;;;;347.23;151.37;;;;;;;;;;4991318;28;20694;-45
2024/01/12 08:15:40;;;;;;;356.13;156.17;;;;;;;;;;4981386;28;20229;-46
2024/01/12 08:18:06;;;;;;;357.17;152.77;;;;;;;;;;4975383;28;20308;-46
2024/01/12 08:20:33;;;;;;;373.13;167.03;;;;;;;;;;4973259;28;20218;-46
2024/01/12 08:22:59;;;;;;;353.20;153.77;;;;;;;;;;4982190;28;20189;-45
2024/01/12 08:25:25;;;;;;;355.80;152.23;;;;;;;;;;4974730;28;20232;-47
2024/01/12 08:27:51;;;;;;;354.77;155.20;;;;;;;;;;4975673;28;20256;-45
2024/01/12 08:30:17;;;;;;;343.90;146.97;;;;;;;;;;4954396;28;20218;-45
2024/01/12 08:32:43;;;;;;;366.43;161.43;;;;;;;;;;4966965;28;20230;-46
2024/01/12 08:35:09;;;;;;;369.33;166.13;;;;;;;;;;4987833;28;20266;-46
2024/01/12 08:37:35;;;;;;;346.20;149.53;;;0.40;99.90;;;;;;4981082;28;20205;-46
2024/01/12 08:40:01;;;;;;;355.57;149.67;;;;;;;;;;4972332;28;20246;-46
2024/01/12 08:42:27;;;;;;;356.87;152.27;;;0.60;99.90;;;;;;4986780;28;20224;-46
2024/01/12 08:44:53;;;;;;;351.33;152.70;;;;;;;;;;4987192;28;20272;-46
2024/01/12 08:47:22;;;;;;;340.10;144.80;;;;;;;;;;4973955;28;20244;-46
2024/01/12 08:49:48;;;;;;;370.13;164.27;;;;;;;;;;4978396;28;20276;-46
2024/01/12 08:52:14;;;;;;;347.43;147.13;;;;;;;;;;4974095;28;20316;-45
2024/01/12 08:54:40;;;;;;;346.70;154.17;;;;;;;;;;4981334;28;20316;-47
2024/01/12 08:57:06;;;;;;;354.10;150.07;;;;;;;;;;4980466;28;20687;-46
2024/01/12 08:59:31;;;;;;;347.73;148.10;;;0.60;99.90;;;;;;4983499;28;20792;-46
2024/01/12 09:01:58;;;;;;;339.73;147.60;;;;;;;;;;4978508;28;20193;-46
2024/01/12 09:04:25;;;;;;;342.40;147.33;;;;;;;;;;4980901;28;20272;-46
2024/01/12 09:06:50;;;;;;;350.57;155.43;;;0.50;99.90;;;;;;4980533;28;20213;-46
2024/01/12 09:09:17;;;;;;;353.07;151.03;;;0.60;99.90;;;;;;4983144;28;20216;-46
2024/01/12 09:11:42;;;;;;;359.13;156.33;;;;;;;;;;4980980;28;20578;-46
2024/01/12 09:14:08;;;;;;;343.27;148.50;;;;;;;;;;4983497;28;20300;-46
2024/01/12 09:16:34;;;;;;;345.93;148.17;;;;;;;;;;4983033;28;20501;-46
2024/01/12 09:19:00;;;;;;;363.53;155.03;;;;;;;;;;4984409;28;20217;-47
2024/01/12 09:21:26;;;;;;;348.07;145.17;;;;;;;;;;4987055;28;20243;-46
2024/01/12 09:23:52;;;;;;;347.37;145.77;;;;;;;;;;4986270;28;20213;-46
2024/01/12 09:26:18;;;;;;;357.53;150.73;;;;;;;;;;4987797;28;20214;-46
2024/01/12 09:28:44;;;;;;;361.90;160.90;;;0.70;99.90;;;;;;4979390;28;20186;-47
2024/01/12 09:31:10;;;;;;;341.60;158.67;;;;;;;;;;4978761;28;20210;-47
2024/01/12 09:33:36;;;;;;;355.10;153.27;;;;;;;;;;4978687;28;20673;-46
2024/01/12 09:36:03;;;;;;;348.37;149.80;;;;;;;;;;4980612;28;20657;-46
2024/01/12 09:38:29;;;;;;;365.40;162.50;;;;;;;;;;4982355;28;20224;-46
2024/01/12 09:40:55;;;;;;;393.33;179.13;;;;;;;;;;4985414;28;20834;-46
2024/01/12 09:43:22;;;;;;;344.87;146.70;;;;;;;;;;4981246;28;20318;-46
2024/01/12 09:45:50;;;;;;;377.33;166.80;;;0.80;99.90;;;;;;4979004;28;20223;-46
2024/01/12 09:48:17;;;;;;;337.67;141.80;;;;;;;;;;4975951;28;20649;-46
2024/01/12 09:50:50;;;;;;;343.33;147.83;;;0.70;99.90;;;;;;4981863;28;20621;-46
2024/01/12 09:53:16;;;;;;;357.67;153.03;;;;;;;;;;4979436;28;20183;-46
2024/01/12 09:55:42;;;;;;;369.47;162.07;;;;;;;;;;4978112;28;20201;-46
2024/01/12 09:58:10;;;;;;;346.50;151.23;;;0.80;99.90;;;;;;4979288;28;20672;-46
2024/01/12 10:00:37;;;;;;;358.30;155.80;;;;;;;;;;4981602;28;20232;-46
2024/01/12 10:03:06;;;;;;;352.47;151.37;;;0.90;99.90;;;;;;4982565;28;20834;-46
2024/01/12 10:05:32;;;;;;;348.33;151.07;;;;;;;;;;4988588;28;20215;-46
2024/01/12 10:07:58;;;;;;;353.00;150.00;;;;;;;;;;4986283;28;20205;-46
2024/01/12 10:10:24;;;;;;;342.27;142.90;;;;;;;;;;4977732;28;20671;-46
2024/01/12 10:12:50;;;;;;;352.83;150.00;;;;;;;;;;4981899;28;20217;-46
2024/01/12 10:15:16;;;;;;;357.30;154.83;;;;;;;;;;4980974;28;20226;-46
2024/01/12 10:17:42;;;;;;;339.80;143.87;;;;;;;;;;4989474;28;20223;-46
2024/01/12 10:20:09;;;;;;;360.53;158.33;;;;;;;;;;4982214;28;20184;-46
2024/01/12 10:22:35;;;;;;;338.47;148.23;;;;;;;;;;4980775;28;20189;-46
2024/01/12 10:25:03;;;;;;;357.90;152.40;;;;;;;;;;4983860;28;20224;-46
2024/01/12 10:27:29;;;;;;;369.57;162.90;;;;;;;;;;4976413;28;20319;-46
2024/01/12 10:29:56;;;;;;;364.50;155.87;;;;;;;;;;4984998;28;20229;-46
2024/01/12 10:32:22;;;;;;;371.50;158.03;;;;;;;;;;4979062;28;20289;-46
2024/01/12 10:34:48;;;;;;;368.37;158.17;;;;;;;;;;4980010;28;20209;-47
2024/01/12 10:37:18;;;;;;;347.93;146.00;;;0.90;99.90;;;;;;4982156;28;20304;-46
2024/01/12 10:39:45;;;;;;;354.27;150.40;;;0.80;99.90;;;;;;4986644;28;20718;-46
2024/01/12 10:42:12;;;;;;;347.13;149.47;;;0.90;99.90;;;;;;4979636;28;20224;-46
2024/01/12 10:44:41;;;;;;;368.77;158.60;;;0.90;99.90;;;;;;4975485;28;20293;-46
2024/01/12 10:47:15;;;;;;;351.70;150.97;;;1.00;99.90;;;;;;4979501;28;20200;-46
2024/01/12 10:49:57;;;;;;;354.27;152.80;;;0.80;99.90;;;;;;4977506;28;20271;-46
2024/01/12 10:52:31;;;;;;;350.77;149.73;;;0.80;99.90;;;;;;4990903;28;20217;-46
2024/01/12 10:55:07;;;;;;;372.43;162.43;;;0.80;99.90;;;;;;4982122;28;20677;-46
2024/01/12 10:57:33;;;;;;;353.93;148.43;;;;;;;;;;4976371;28;20327;-46
2024/01/12 10:59:59;;;;;;;358.07;152.47;;;;;;;;;;4979694;28;20231;-46
2024/01/12 11:02:26;;;;;;;349.47;152.00;;;;;;;;;;4978011;28;20300;-46
2024/01/12 11:04:53;;;;;;;385.87;168.23;;;0.70;99.90;;;;;;4986622;28;20185;-46
2024/01/12 11:07:20;;;;;;;365.00;160.17;;;0.80;99.90;;;;;;4990194;28;20220;-46
2024/01/12 11:09:46;;;;;;;373.43;163.87;;;;;;;;;;4985596;28;20324;-46
2024/01/12 11:12:25;;;;;;;340.27;145.50;;;0.70;99.90;;;;;;4978441;28;20321;-46
2024/01/12 11:14:51;;;;;;;366.00;162.47;;;;;;;;;;4979480;28;20230;-47
2024/01/12 11:17:17;;;;;;;334.17;141.17;;;;;;;;;;4982358;28;23135;-46
2024/01/12 11:19:42;;;;;;;357.00;157.60;;;;;;;;;;4978235;28;20181;-47
2024/01/12 11:22:10;;;;;;;379.70;168.10;;;1.00;99.90;;;;;;4981370;28;20215;-48
2024/01/12 11:24:37;;;;;;;362.93;158.77;;;1.00;99.90;;;;;;4971359;28;20342;-46
2024/01/12 11:27:06;;;;;;;365.87;162.27;;;1.10;99.90;;;;;;4985185;28;20230;-46
2024/01/12 11:29:35;;;;;;;350.70;151.33;;;1.40;99.90;;;;;;4980645;28;20691;-47
2024/01/12 11:32:02;;;;;;;355.47;158.50;;;;;;;;;;4977363;28;20200;-46
2024/01/12 11:34:35;;;;;;;348.10;152.07;;;0.60;99.90;;;;;;4975921;28;20312;-46
2024/01/12 11:37:01;;;;;;;359.33;157.57;;;;;;;;;;4980776;28;20724;-46
2024/01/12 11:39:37;;;;;;;355.17;152.70;;;0.60;99.90;;;;;;4980554;28;20311;-46
2024/01/12 11:42:05;;;;;;;364.57;161.43;;;0.50;99.90;;;;;;4986066;28;20216;-45
2024/01/12 11:44:33;;;;;;;352.17;150.43;;;0.50;99.90;;;;;;4987068;28;20225;-46
2024/01/12 11:47:00;;;;;;;377.03;169.33;;;0.50;99.90;;;;;;4960725;28;20250;-46
2024/01/12 11:49:26;;;;;;;355.33;157.77;;;;;;;;;;4980431;28;20804;-46
2024/01/12 11:52:02;;;;;;;346.97;152.90;;;4.40;99.90;;;;;;4989795;28;20313;-46
2024/01/12 11:54:28;;;;;;;374.00;169.40;;;;;;;;;;4961964;28;20221;-46
2024/01/12 11:56:53;;;;;;;351.77;149.60;;;0.40;99.90;;;;;;4958168;28;20230;-45
2024/01/12 11:59:19;;;;;;;340.43;144.80;;;;;;;;;;4966292;28;20243;-46
2024/01/12 12:01:45;;;;;;;369.80;166.03;;;0.10;99.90;;;;;;4966721;28;20565;-46
2024/01/12 12:04:11;;;;;;;359.90;161.33;;;;;;;;;;4974984;28;20601;-45
2024/01/12 12:06:37;;;;;;;447.80;217.33;;;;;;;;;;4958155;28;20237;-46
2024/01/12 12:09:03;;;;;;;345.50;150.97;;;;;;;;;;4975043;28;20217;-46
2024/01/12 12:11:29;;;;;;;345.57;146.53;;;;;;;;;;4985567;28;20220;-46
2024/01/12 12:13:56;;;;;;;365.87;158.70;;;;;;;;;;4982047;28;20190;-46
2024/01/12 12:16:22;;;;;;;343.53;145.13;;;;;;;;;;4974565;28;20264;-46
2024/01/12 12:18:48;;;;;;;333.03;141.07;;;;;;;;;;4985215;28;20331;-46
2024/01/12 12:21:14;;;;;;;356.13;151.60;;;;;;;;;;4984715;28;20826;-46
2024/01/12 12:23:41;;;;;;;355.70;156.90;;;;;;;;;;4975368;28;20485;-46
2024/01/12 12:26:08;;;;;;;366.40;161.63;;;0.60;99.90;;;;;;4962555;28;20194;-46
2024/01/12 12:28:34;;;;;;;359.87;154.50;;;;;;;;;;4982590;28;20652;-46
2024/01/12 12:31:00;;;;;;;354.77;152.37;;;0.00;99.90;;;;;;4981694;28;20577;-46
2024/01/12 12:33:25;;;;;;;346.07;146.90;;;;;;;;;;4985639;28;20214;-46
2024/01/12 12:36:05;;;;;;;326.67;138.83;;;0.30;99.90;;;;;;4985743;28;20232;-46
2024/01/12 12:38:31;;;;;;;397.13;180.03;;;;;;;;;;4981453;28;20865;-46
2024/01/12 12:40:58;;;;;;;352.33;154.90;;;;;;;;;;4979502;28;20244;-46
2024/01/12 12:43:25;;;;;;;350.23;151.00;;;0.40;99.90;;;;;;4992628;28;20184;-46
2024/01/12 12:45:57;;;;;;;359.67;156.93;;;0.30;99.90;;;;;;4981555;28;20233;-46
2024/01/12 12:48:28;;;;;;;344.43;148.97;;;0.20;99.90;;;;;;4980418;28;20559;-46
2024/01/12 12:50:54;;;;;;;348.63;148.43;;;;;;;;;;4982805;28;20722;-46
2024/01/12 12:53:21;;;;;;;333.23;140.00;;;;;;;;;;4993352;28;20216;-46
2024/01/12 12:55:47;;;;;;;358.50;155.20;;;;;;;;;;4978900;28;20256;-47
2024/01/12 12:58:14;;;;;;;362.27;157.63;;;0.00;99.90;;;;;;4980501;28;20702;-46
2024/01/12 13:00:40;;;;;;;348.50;150.13;;;;;;;;;;4978926;28;20224;-46
2024/01/12 13:03:06;;;;;;;355.37;155.03;;;;;;;;;;4980227;28;20226;-47
2024/01/12 13:05:36;;;;;;;363.37;157.63;;;;;;;;;;4985087;28;20225;-46
2024/01/12 13:08:03;;;;;;;377.70;163.47;;;0.10;99.90;;;;;;4982248;28;20217;-46
2024/01/12 13:10:29;;;;;;;446.10;206.60;;;;;;;;;;4965736;28;20193;-47
2024/01/12 13:12:55;;;;;;;360.90;155.57;;;;;;;;;;4984261;28;20217;-47
2024/01/12 13:15:21;;;;;;;393.20;173.30;;;;;;;;;;4976554;28;20316;-47
2024/01/12 13:17:47;;;;;;;333.63;143.23;;;;;;;;;;4980542;28;20331;-47
2024/01/12 13:20:13;;;;;;;345.30;147.07;;;;;;;;;;4981519;28;20579;-47
2024/01/12 13:22:39;;;;;;;354.53;150.90;;;;;;;;;;4979687;28;20178;-47
2024/01/12 13:25:06;;;;;;;366.50;157.13;;;0.40;99.90;;;;;;4987421;28;20573;-47
2024/01/12 13:27:32;;;;;;;348.90;154.30;;;;;;;;;;4988175;28;20458;-47
2024/01/12 13:29:58;;;;;;;353.87;154.03;;;;;;;;;;4991971;28;20442;-47
2024/01/12 13:32:24;;;;;;;358.07;153.47;;;;;;;;;;4982574;28;20679;-47